Orbital elements of INTELSAT 706
| Launched | 16 May 1995 |
| Flight ended | – |
| Launch site | Europe's Spaceport, Kourou, French Guiana |
| Owner | International Telecommunications Satellite Organization (INTELSAT) |
| NORAD ID | 23571 |
| Alternative names |
IS-706 |
| Date fetched |
Epoch osculation |
Inc. [°] |
Ecc. | RA asc node [hr] |
Arg Peri. [°] |
Mean anom [°] |
Mean motion [rev/day] |
Abs. mag |
| Date fetched |
Epoch osculation |
Inc. [°] |
Ecc. | RA asc node [hr] |
Arg Peri. [°] |
Mean anom [°] |
Mean motion [rev/day] |
Abs. mag |
| 2026 May 09 17:57 | 2026 May 05 13:44:55 | 10.8757 | 0.00046 | 3.0142 | 322.1556 | 230.9952 | 0.99056 | 4.743 |
| 2026 May 08 17:57 | 2026 May 05 13:44:55 | 10.8757 | 0.00046 | 3.0142 | 322.1556 | 230.9952 | 0.99056 | 4.743 |
| 2026 May 07 17:58 | 2026 May 05 13:44:55 | 10.8757 | 0.00046 | 3.0142 | 322.1556 | 230.9952 | 0.99056 | 4.743 |
| 2026 May 06 17:57 | 2026 May 05 13:44:55 | 10.8757 | 0.00046 | 3.0142 | 322.1556 | 230.9952 | 0.99056 | 4.743 |
| 2026 May 05 17:57 | 2026 May 05 13:44:55 | 10.8757 | 0.00046 | 3.0142 | 322.1556 | 230.9952 | 0.99056 | 4.743 |
| 2026 May 04 17:57 | 2026 Apr 30 12:35:18 | 10.8664 | 0.00049 | 3.0173 | 318.0271 | 230.9952 | 0.99056 | 4.743 |
| 2026 May 03 17:57 | 2026 Apr 30 12:35:18 | 10.8664 | 0.00049 | 3.0173 | 318.0271 | 230.9952 | 0.99056 | 4.743 |
| 2026 May 02 17:57 | 2026 Apr 30 12:35:18 | 10.8664 | 0.00049 | 3.0173 | 318.0271 | 230.9952 | 0.99056 | 4.743 |
| 2026 May 01 17:56 | 2026 Apr 30 12:35:18 | 10.8664 | 0.00049 | 3.0173 | 318.0271 | 230.9952 | 0.99056 | 4.743 |
| 2026 Apr 30 17:56 | 2026 Apr 30 12:35:18 | 10.8664 | 0.00049 | 3.0173 | 318.0271 | 230.9952 | 0.99056 | 4.743 |
| 2026 Apr 29 17:57 | 2026 Apr 24 11:15:44 | 10.8544 | 0.00050 | 3.0208 | 311.0621 | 230.9952 | 0.99056 | 4.743 |
| 2026 Apr 28 17:56 | 2026 Apr 24 11:15:44 | 10.8544 | 0.00050 | 3.0208 | 311.0621 | 230.9952 | 0.99056 | 4.743 |
| 2026 Apr 27 17:58 | 2026 Apr 24 11:15:44 | 10.8544 | 0.00050 | 3.0208 | 311.0621 | 230.9952 | 0.99056 | 4.743 |
| 2026 Apr 26 17:58 | 2026 Apr 24 11:15:44 | 10.8544 | 0.00050 | 3.0208 | 311.0621 | 230.9952 | 0.99056 | 4.743 |
| 2026 Apr 25 17:58 | 2026 Apr 24 11:15:44 | 10.8544 | 0.00050 | 3.0208 | 311.0621 | 230.9952 | 0.99056 | 4.743 |
| 2026 Apr 24 17:59 | 2026 Apr 24 11:15:44 | 10.8544 | 0.00050 | 3.0208 | 311.0621 | 230.9952 | 0.99056 | 4.743 |
| 2026 Apr 23 17:57 | 2026 Apr 19 10:58:54 | 10.8431 | 0.00049 | 3.0234 | 307.6427 | 230.9952 | 0.99056 | 4.743 |
| 2026 Apr 22 17:57 | 2026 Apr 19 10:58:54 | 10.8431 | 0.00049 | 3.0234 | 307.6427 | 230.9952 | 0.99056 | 4.743 |
| 2026 Apr 21 17:57 | 2026 Apr 19 10:58:54 | 10.8431 | 0.00049 | 3.0234 | 307.6427 | 230.9952 | 0.99056 | 4.743 |
| 2026 Apr 20 17:57 | 2026 Apr 19 10:58:54 | 10.8431 | 0.00049 | 3.0234 | 307.6427 | 230.9952 | 0.99056 | 4.743 |
| 2026 Apr 19 17:58 | 2026 Apr 19 10:58:54 | 10.8431 | 0.00049 | 3.0234 | 307.6427 | 230.9952 | 0.99056 | 4.743 |
| 2026 Apr 18 17:56 | 2026 Apr 12 10:46:56 | 10.8277 | 0.00051 | 3.0273 | 308.8432 | 230.9952 | 0.99056 | 4.743 |
| 2026 Apr 16 17:57 | 2026 Apr 12 10:46:56 | 10.8277 | 0.00051 | 3.0273 | 308.8432 | 230.9952 | 0.99056 | 4.743 |
| 2026 Apr 14 17:57 | 2026 Apr 12 10:46:56 | 10.8277 | 0.00051 | 3.0273 | 308.8432 | 230.9952 | 0.99056 | 4.743 |
| 2026 Apr 13 17:57 | 2026 Apr 12 10:46:56 | 10.8277 | 0.00051 | 3.0273 | 308.8432 | 230.9952 | 0.99056 | 4.743 |
| 2026 Apr 12 17:57 | 2026 Apr 08 07:08:47 | 10.8197 | 0.00053 | 3.0298 | 308.7885 | 230.9952 | 0.99056 | 4.743 |